Time;durP1;ratioP1;P1;durP2;ratioP2;P2;SDS_P1;SDS_P2;PMS_P1;PMS_P2;Temp;Humidity;BMP_temperature;BMP_pressure;BME280_temperature;BME280_humidity;BME280_pressure;Samples;Min_cycle;Max_cycle;Signal;HPM_P1;HPM_P2
2021/06/27 00:01:11;;;;;;;5.60;4.17;;;;;;;15.36;80.94;96740.88;1634668;85;20956;-79
2021/06/27 00:03:36;;;;;;;5.40;4.50;;;;;;;15.38;81.07;96740.97;1652511;85;20945;-79
2021/06/27 00:06:04;;;;;;;6.37;4.08;;;;;;;15.41;81.37;96739.25;1666626;85;21404;-79
2021/06/27 00:08:30;;;;;;;6.75;5.60;;;;;;;15.43;81.57;96742.47;1666285;85;20956;-79
2021/06/27 00:10:58;;;;;;;8.48;5.12;;;;;;;15.43;81.77;96736.42;1668629;85;20989;-79
2021/06/27 00:13:25;;;;;;;7.90;5.62;;;;;;;15.41;81.88;96743.17;1686030;83;20954;-79
2021/06/27 00:15:51;;;;;;;7.05;5.80;;;;;;;15.41;82.09;96736.63;1692821;83;20982;-79
2021/06/27 00:18:19;;;;;;;6.50;5.55;;;;;;;15.41;82.14;96736.63;1694816;83;20985;-79
2021/06/27 00:20:47;;;;;;;6.40;5.58;;;;;;;15.43;82.29;96734.61;1675154;83;21077;-79
2021/06/27 00:23:14;;;;;;;6.40;5.70;;;;;;;15.48;82.32;96733.52;1662234;83;21076;-79
2021/06/27 00:25:40;;;;;;;6.80;6.10;;;;;;;15.53;82.35;96725.84;1695949;83;20988;-79
2021/06/27 00:28:06;;;;;;;7.33;6.58;;;;;;;15.56;82.30;96724.13;1694459;83;20990;-80
2021/06/27 00:30:32;;;;;;;8.65;7.17;;;;;;;15.59;82.44;96729.48;1691573;83;21002;-80
2021/06/27 00:32:58;;;;;;;8.13;7.33;;;;;;;15.59;82.48;96734.22;1694160;83;20946;-79
2021/06/27 00:35:25;;;;;;;6.62;6.00;;;;;;;15.60;82.57;96737.13;1691421;83;20966;-79
2021/06/27 00:37:51;;;;;;;9.18;5.40;;;;;;;15.60;82.52;96734.52;1695006;83;20938;-79
2021/06/27 00:40:20;;;;;;;4.87;4.33;;;;;;;15.63;82.45;96740.38;1662766;85;20919;-79
2021/06/27 00:42:46;;;;;;;4.67;4.28;;;;;;;15.63;82.24;96739.87;1676581;84;20991;-79
2021/06/27 00:45:13;;;;;;;4.83;4.12;;;;;;;15.63;82.08;96737.77;1688322;84;20921;-79
2021/06/27 00:47:40;;;;;;;4.85;3.98;;;;;;;15.57;81.99;96734.09;1671641;84;20971;-79
2021/06/27 00:50:09;;;;;;;5.30;4.35;;;;;;;15.53;82.01;96741.56;1666111;85;20916;-79
2021/06/27 00:52:35;;;;;;;3.90;3.50;;;;;;;15.49;81.87;96739.05;1668671;84;21309;-79
2021/06/27 00:55:01;;;;;;;3.27;2.98;;;;;;;15.47;81.76;96737.66;1669359;84;21016;-79
2021/06/27 00:57:26;;;;;;;6.00;3.35;;;;;;;15.46;81.71;96731.61;1666177;84;20954;-79
2021/06/27 00:59:52;;;;;;;5.80;3.40;;;;;;;15.44;81.88;96740.66;1684864;84;21300;-79
2021/06/27 01:02:18;;;;;;;3.95;3.62;;;;;;;15.42;81.66;96731.70;1687637;84;20908;-78
2021/06/27 01:04:43;;;;;;;4.00;3.52;;;;;;;15.36;81.60;96729.90;1688372;84;20908;-79
2021/06/27 01:07:10;;;;;;;3.47;3.17;;;;;;;15.31;81.78;96733.13;1687952;85;21301;-79
2021/06/27 01:09:36;;;;;;;3.42;3.05;;;;;;;15.27;81.96;96737.14;1688197;85;20936;-79
2021/06/27 01:12:02;;;;;;;3.60;3.27;;;;;;;15.23;82.05;96729.90;1687541;84;20968;-79
2021/06/27 01:14:28;;;;;;;4.20;3.00;;;;;;;15.18;82.04;96731.83;1678416;84;21378;-79
2021/06/27 01:16:53;;;;;;;3.50;3.15;;;;;;;15.15;82.17;96732.23;1678101;84;21032;-79
2021/06/27 01:19:19;;;;;;;3.90;3.60;;;;;;;15.11;82.26;96725.77;1673818;84;20944;-79
2021/06/27 01:21:52;;;;;;;5.33;3.80;;;;;;;15.14;82.30;96736.36;1658486;86;20953;-79
2021/06/27 01:24:20;;;;;;;4.75;4.08;;;;;;;15.15;82.18;96734.05;1615929;87;21250;-79
2021/06/27 01:26:46;;;;;;;4.33;3.72;;;;;;;15.11;82.39;96734.13;1678116;84;21013;-79
2021/06/27 01:29:11;;;;;;;4.17;3.85;;;;;;;15.02;82.67;96728.30;1676768;84;20956;-79
2021/06/27 01:31:37;;;;;;;4.37;3.83;;;;;;;14.99;82.91;96734.75;1654967;85;21020;-79
2021/06/27 01:34:03;;;;;;;3.65;3.35;;;;;;;14.97;82.74;96738.06;1669342;85;21002;-79
2021/06/27 01:36:28;;;;;;;4.17;3.72;;;;;;;14.99;82.75;96747.02;1665391;85;21057;-79
2021/06/27 01:38:54;;;;;;;3.35;3.05;;;;;;;15.01;82.70;96737.97;1649181;85;21282;-79
2021/06/27 01:41:20;;;;;;;5.47;3.77;;;;;;;15.03;82.72;96745.61;1640805;86;20920;-79
2021/06/27 01:43:46;;;;;;;4.55;4.15;;;;;;;15.03;82.80;96744.80;1657305;85;20976;-79
2021/06/27 01:46:12;;;;;;;5.22;4.33;;;;;;;14.98;82.99;96742.80;1665401;85;20962;-79
2021/06/27 01:48:38;;;;;;;4.65;4.25;;;;;;;14.94;83.39;96750.22;1658523;85;21262;-79
2021/06/27 01:51:06;;;;;;;5.25;3.55;;;;;;;14.90;83.57;96744.28;1668319;85;20909;-79
2021/06/27 01:53:34;;;;;;;3.85;3.55;;;;;;;14.89;83.55;96747.91;1659538;84;20915;-79
2021/06/27 01:56:09;;;;;;;4.15;3.75;;;;;;;14.91;83.55;96749.31;1641199;86;20951;-79
2021/06/27 01:58:43;;;;;;;6.53;4.10;;;;;;;14.96;83.65;96752.13;1624883;86;21249;-79
2021/06/27 02:01:14;;;;;;;7.17;4.10;;;;;;;14.97;83.33;96752.97;1660933;84;20987;-79
2021/06/27 02:03:40;;;;;;;5.25;4.75;;;;;;;14.97;83.56;96758.20;1669175;85;20950;-79
2021/06/27 02:06:06;;;;;;;5.12;4.60;;;;;;;14.96;83.66;96757.36;1619157;87;20955;-79
2021/06/27 02:08:33;;;;;;;5.60;5.10;;;;;;;14.93;83.70;96758.27;1618520;86;21064;-79
2021/06/27 02:11:01;;;;;;;4.62;4.22;;;;;;;14.90;83.57;96758.17;1646327;85;21333;-79
2021/06/27 02:13:27;;;;;;;4.60;4.20;;;;;;;14.87;83.92;96758.58;1639550;86;21047;-79
2021/06/27 02:15:53;;;;;;;5.30;4.80;;;;;;;14.84;84.03;96762.91;1638138;86;21335;-79
2021/06/27 02:18:32;;;;;;;5.50;5.00;;;;;;;14.82;84.11;96758.38;1643922;86;21252;-79
2021/06/27 02:21:02;;;;;;;5.00;4.50;;;;;;;14.82;84.21;96758.38;1663491;85;21327;-79
2021/06/27 02:23:28;;;;;;;5.85;5.20;;;;;;;14.80;84.36;96757.74;1663338;85;21353;-79
2021/06/27 02:25:53;;;;;;;6.20;5.60;;;;;;;14.80;84.46;96753.81;1648642;85;20983;-79
2021/06/27 02:28:20;;;;;;;6.67;6.00;;;;;;;14.79;84.61;96751.41;1663104;85;20924;-79
2021/06/27 02:30:46;;;;;;;7.03;6.40;;;;;;;14.78;84.81;96761.06;1662083;85;21039;-79
2021/06/27 02:33:11;;;;;;;9.45;6.90;;;;;;;14.76;84.95;96755.23;1649579;86;20940;-79
2021/06/27 02:35:38;;;;;;;6.92;6.22;;;;;;;14.77;85.11;96753.42;1649641;85;21036;-79
2021/06/27 02:38:04;;;;;;;6.33;5.45;;;;;;;14.79;84.87;96755.33;1660705;85;20936;-79
2021/06/27 02:40:30;;;;;;;9.45;6.22;;;;;;;14.81;84.65;96756.77;1659743;85;21283;-79
2021/06/27 02:42:56;;;;;;;6.83;5.75;;;;;;;14.85;84.78;96759.78;1657341;85;20940;-79
2021/06/27 02:45:22;;;;;;;6.85;5.78;;;;;;;14.85;84.97;96763.20;1649735;85;20935;-79
2021/06/27 02:47:48;;;;;;;6.85;6.10;;;;;;;14.87;85.04;96772.97;1649615;85;21415;-79
2021/06/27 02:50:14;;;;;;;7.25;6.55;;;;;;;14.87;85.01;96766.42;1657228;86;20967;-79
2021/06/27 02:52:41;;;;;;;10.55;7.72;;;;;;;14.87;85.20;96767.73;1619876;85;20974;-79
2021/06/27 02:55:08;;;;;;;8.45;7.40;;;;;;;14.86;85.21;96766.63;1662165;85;21313;-79
2021/06/27 02:57:34;;;;;;;8.20;7.40;;;;;;;14.84;85.40;96768.64;1662636;85;21263;-79
2021/06/27 02:59:59;;;;;;;7.37;6.65;;;;;;;14.82;85.40;96766.22;1660535;86;20959;-79
2021/06/27 03:02:25;;;;;;;7.17;6.58;;;;;;;14.81;85.47;96763.30;1649886;85;20952;-79
2021/06/27 03:04:51;;;;;;;8.48;7.12;;;;;;;14.82;85.51;96763.61;1659565;85;20928;-79
2021/06/27 03:07:16;;;;;;;9.00;7.10;;;;;;;14.83;85.71;96769.64;1643992;85;20948;-79
2021/06/27 03:09:43;;;;;;;8.30;6.72;;;;;;;14.85;85.62;96773.67;1655026;85;20956;-81
2021/06/27 03:12:12;;;;;;;7.62;5.92;;;;;;;14.91;85.54;96774.67;1649892;85;21340;-81
2021/06/27 03:14:37;;;;;;;7.53;6.72;;;;;;;14.97;85.25;96770.78;1657125;85;21040;-81
2021/06/27 03:17:03;;;;;;;8.85;7.65;;;;;;;14.99;85.20;96768.77;1671898;85;21045;-80
2021/06/27 03:19:29;;;;;;;9.30;8.38;;;;;;;15.00;85.30;96768.26;1667889;84;21010;-81
2021/06/27 03:21:55;;;;;;;8.58;7.67;;;;;;;14.99;85.42;96767.45;1642576;86;20958;-80
2021/06/27 03:24:20;;;;;;;8.78;7.33;;;;;;;15.00;85.29;96757.79;1671232;84;20936;-81
2021/06/27 03:26:46;;;;;;;7.62;6.85;;;;;;;15.03;85.27;96760.00;1671854;84;21314;-81
2021/06/27 03:29:12;;;;;;;7.75;7.00;;;;;;;15.07;85.27;96756.48;1672161;84;20926;-81
2021/06/27 03:31:38;;;;;;;7.28;6.58;;;;;;;15.09;85.33;96763.12;1654846;85;20921;-81
2021/06/27 03:34:04;;;;;;;8.05;6.78;;;;;;;15.11;85.29;96757.68;1666450;85;20967;-80
2021/06/27 03:36:30;;;;;;;8.20;7.40;;;;;;;15.15;85.35;96754.98;1665648;85;20987;-80
2021/06/27 03:41:30;;;;;;;9.03;7.72;;;;;;;15.25;85.38;96759.30;1658765;85;20987;-80
2021/06/27 03:43:55;;;;;;;8.98;8.08;;;;;;;15.24;85.18;96753.76;1639300;86;20985;-80
2021/06/27 03:46:21;;;;;;;8.43;7.62;;;;;;;15.24;85.18;96753.25;1653112;85;21061;-81
2021/06/27 03:48:46;;;;;;;9.88;7.28;;;;;;;15.27;85.18;96752.05;1662873;85;20960;-80
2021/06/27 03:51:12;;;;;;;7.97;7.20;;;;;;;15.29;85.30;96748.72;1662447;85;20990;-80
2021/06/27 03:53:38;;;;;;;8.45;7.17;;;;;;;15.30;85.37;96746.43;1640836;86;21009;-81
2021/06/27 03:56:04;;;;;;;8.53;7.60;;;;;;;15.30;85.42;96745.12;1639848;85;21023;-81
2021/06/27 03:58:30;;;;;;;7.67;7.05;;;;;;;15.31;85.48;96742.30;1666510;85;20979;-81
2021/06/27 04:00:55;;;;;;;8.58;7.75;;;;;;;15.34;85.50;96750.24;1666332;85;21032;-80
2021/06/27 04:03:21;;;;;;;11.40;8.20;;;;;;;15.37;85.66;96746.41;1656788;85;20925;-80
2021/06/27 04:05:47;;;;;;;9.20;8.25;;;;;;;15.37;85.74;96749.84;1666647;85;21287;-79
2021/06/27 04:08:13;;;;;;;8.45;7.65;;;;;;;15.40;85.69;96752.05;1641701;85;20965;-79
2021/06/27 04:10:39;;;;;;;9.45;7.60;;;;;;;15.45;85.67;96749.61;1637405;85;20988;-79
2021/06/27 04:13:04;;;;;;;8.35;7.40;;;;;;;15.47;85.68;96741.08;1664096;85;21296;-80
2021/06/27 04:15:30;;;;;;;9.65;8.75;;;;;;;15.50;85.66;96741.17;1668700;85;21008;-78
2021/06/27 04:17:56;;;;;;;9.98;8.98;;;;;;;15.51;85.65;96740.96;1662752;85;21050;-79
2021/06/27 04:20:21;;;;;;;9.35;8.45;;;;;;;15.54;85.71;96738.44;1667045;85;20932;-79
2021/06/27 04:22:47;;;;;;;8.98;8.03;;;;;;;15.59;85.83;96738.14;1667118;85;21292;-79
2021/06/27 04:25:13;;;;;;;8.48;7.67;;;;;;;15.68;85.81;96739.25;1668947;86;20944;-79
2021/06/27 04:27:39;;;;;;;8.73;7.83;;;;;;;15.72;85.67;96738.63;1668197;85;21014;-79
2021/06/27 04:30:06;;;;;;;8.43;7.47;;;;;;;15.78;85.72;96744.85;1666603;85;21308;-79
2021/06/27 04:32:32;;;;;;;8.85;6.87;;;;;;;15.81;85.78;96735.30;1665030;85;20972;-79
2021/06/27 04:34:57;;;;;;;9.75;8.20;;;;;;;15.83;85.80;96731.45;1668499;85;20957;-79
2021/06/27 04:37:23;;;;;;;11.70;8.93;;;;;;;15.86;85.89;96731.04;1664972;86;20944;-79
2021/06/27 04:39:49;;;;;;;8.73;7.83;;;;;;;15.93;85.91;96736.75;1668761;85;21248;-79
2021/06/27 04:42:15;;;;;;;10.25;9.25;;;;;;;15.99;85.92;96734.13;1662750;85;20926;-79
2021/06/27 04:44:41;;;;;;;8.85;8.00;;;;;;;16.05;86.07;96739.04;1664372;85;20942;-79
2021/06/27 04:47:09;;;;;;;8.65;7.85;;;;;;;16.12;86.10;96738.02;1667892;85;21924;-79
2021/06/27 04:49:39;;;;;;;10.55;7.83;;;;;;;16.20;86.07;96735.66;1649701;85;21006;-78
2021/06/27 04:52:09;;;;;;;9.25;8.23;;;;;;;16.29;86.14;96735.73;1667607;85;21296;-79
2021/06/27 04:54:36;;;;;;;9.58;8.65;;;;;;;16.35;85.94;96731.46;1669097;85;20963;-79
2021/06/27 04:57:02;;;;;;;9.10;7.67;;;;;;;16.42;85.88;96725.16;1669262;85;20983;-79
2021/06/27 04:59:28;;;;;;;8.60;7.65;;;;;;;16.46;85.79;96730.81;1668409;86;21000;-80
2021/06/27 05:01:53;;;;;;;9.23;7.47;;;;;;;16.53;85.90;96728.94;1668595;85;20999;-79
2021/06/27 05:04:19;;;;;;;9.08;8.13;;;;;;;16.61;85.84;96730.53;1678520;84;20951;-79
2021/06/27 05:06:45;;;;;;;8.33;7.45;;;;;;;16.71;85.75;96737.44;1663944;85;21348;-79
2021/06/27 05:09:11;;;;;;;9.58;8.55;;;;;;;16.81;85.61;96737.80;1667138;85;21045;-79
2021/06/27 05:11:37;;;;;;;9.88;8.88;;;;;;;16.92;85.44;96731.87;1666512;85;21289;-79
2021/06/27 05:14:03;;;;;;;9.40;7.12;;;;;;;17.02;85.17;96732.69;1662201;85;21082;-80
2021/06/27 05:16:29;;;;;;;10.13;8.48;;;;;;;17.13;85.13;96733.83;1666552;85;20980;-79
2021/06/27 05:18:54;;;;;;;9.38;8.25;;;;;;;17.23;85.11;96725.75;1671746;84;20947;-79
2021/06/27 05:21:20;;;;;;;11.10;9.90;;;;;;;17.32;85.00;96731.55;1640425;86;21021;-79
2021/06/27 05:23:46;;;;;;;13.68;12.23;;;;;;;17.39;84.41;96736.22;1658986;85;20973;-79
2021/06/27 05:26:12;;;;;;;12.13;11.03;;;;;;;17.47;84.13;96733.84;1659300;85;20921;-79
2021/06/27 05:28:37;;;;;;;13.60;12.23;;;;;;;17.54;83.77;96735.88;1663895;85;20928;-79
2021/06/27 05:31:03;;;;;;;13.48;12.18;;;;;;;17.60;83.85;96734.52;1662644;85;20974;-79
2021/06/27 05:33:29;;;;;;;14.15;12.70;;;;;;;17.65;83.26;96739.13;1658639;85;20930;-80
2021/06/27 05:35:54;;;;;;;13.93;12.45;;;;;;;17.64;82.75;96738.31;1649877;85;21270;-79
2021/06/27 05:38:20;;;;;;;13.00;11.70;;;;;;;17.68;82.64;96736.89;1662131;85;20926;-79
2021/06/27 05:40:46;;;;;;;15.15;13.65;;;;;;;17.77;82.90;96740.05;1663734;85;20964;-79
2021/06/27 05:43:11;;;;;;;16.48;14.95;;;;;;;17.81;82.41;96742.53;1640593;86;21255;-80
2021/06/27 05:45:37;;;;;;;14.83;13.43;;;;;;;17.86;82.45;96747.92;1651897;85;20986;-80
2021/06/27 05:48:04;;;;;;;14.07;12.68;;;;;;;17.96;82.94;96746.91;1663701;85;20952;-79
2021/06/27 05:50:30;;;;;;;16.23;14.68;;;;;;;18.04;82.68;96755.52;1645845;86;20984;-79
2021/06/27 05:52:55;;;;;;;17.77;14.38;;;;;;;18.08;82.49;96760.14;1653116;85;20925;-79
2021/06/27 05:55:21;;;;;;;16.85;15.20;;;;;;;18.13;81.71;96758.16;1661973;85;20924;-79
2021/06/27 05:57:47;;;;;;;17.98;15.83;;;;;;;18.13;81.45;96756.84;1663754;85;20983;-79
2021/06/27 06:00:14;;;;;;;17.55;15.25;;;;;;;18.18;81.77;96762.23;1662073;85;21285;-79
2021/06/27 06:02:39;;;;;;;16.35;14.75;;;;;;;18.23;81.94;96763.20;1663905;86;20936;-79
2021/06/27 06:05:06;;;;;;;18.45;16.60;;;;;;;18.32;81.95;96765.52;1660701;85;20932;-79
2021/06/27 06:07:32;;;;;;;17.32;15.50;;;;;;;18.40;81.69;96763.92;1663693;85;21000;-79
2021/06/27 06:09:58;;;;;;;16.82;15.13;;;;;;;18.46;81.21;96762.51;1663105;85;20988;-79
2021/06/27 06:12:24;;;;;;;19.25;17.23;;;;;;;18.55;80.88;96763.82;1663715;85;21266;-79
2021/06/27 06:14:50;;;;;;;19.27;17.25;;;;;;;18.56;80.30;96769.89;1658158;85;20921;-79
2021/06/27 06:17:15;;;;;;;17.00;15.28;;;;;;;18.54;80.84;96763.50;1652701;85;20936;-79
2021/06/27 06:19:41;;;;;;;20.32;15.93;;;;;;;18.64;80.77;96764.33;1651874;85;20924;-79
2021/06/27 06:22:07;;;;;;;15.63;13.98;;;;;;;18.74;80.52;96761.98;1625672;86;20972;-79
2021/06/27 06:24:33;;;;;;;17.07;15.35;;;;;;;18.86;80.55;96759.36;1653385;85;20944;-79
2021/06/27 06:26:59;;;;;;;13.60;12.23;;;;;;;18.98;80.15;96760.20;1660584;85;20979;-79
2021/06/27 06:29:24;;;;;;;15.32;13.83;;;;;;;19.08;80.34;96762.30;1662369;85;21264;-79
2021/06/27 06:31:50;;;;;;;16.20;14.65;;;;;;;19.11;80.27;96760.01;1668656;85;20967;-80
2021/06/27 06:34:16;;;;;;;15.23;13.62;;;;;;;19.18;79.74;96750.16;1668763;85;20912;-80
2021/06/27 06:36:44;;;;;;;14.00;12.65;;;;;;;19.29;79.83;96754.36;1668643;85;20939;-79
2021/06/27 06:39:10;;;;;;;14.50;13.05;;;;;;;19.39;78.82;96750.66;1668611;85;21314;-79
2021/06/27 06:41:36;;;;;;;14.53;13.10;;;;;;;19.43;78.54;96756.56;1668767;85;20940;-80
2021/06/27 06:44:03;;;;;;;13.60;12.15;;;;;;;19.49;78.27;96754.83;1668010;85;20951;-80
2021/06/27 06:46:29;;;;;;;13.40;11.95;;;;;;;19.57;78.22;96758.49;1649612;86;20982;-80
2021/06/27 06:48:56;;;;;;;12.93;11.55;;;;;;;19.67;78.63;96763.17;1659548;85;20948;-79
2021/06/27 06:51:24;;;;;;;14.05;12.63;;;;;;;19.70;77.88;96761.42;1665450;85;20976;-79
2021/06/27 06:53:50;;;;;;;12.58;11.40;;;;;;;19.80;77.64;96755.03;1668741;85;21277;-79
2021/06/27 06:56:15;;;;;;;14.23;12.78;;;;;;;19.90;76.78;96759.22;1665687;85;20936;-79
2021/06/27 06:58:41;;;;;;;13.05;11.75;;;;;;;19.95;76.33;96760.64;1641675;85;20961;-79
2021/06/27 07:01:07;;;;;;;13.50;11.63;;;;;;;19.99;75.96;96771.52;1662796;85;21277;-80
2021/06/27 07:03:33;;;;;;;13.43;12.10;;;;;;;20.05;75.66;96770.61;1666623;85;21213;-80
2021/06/27 07:06:01;;;;;;;13.20;11.50;;;;;;;20.08;75.50;96769.63;1650308;86;20966;-79
2021/06/27 07:08:28;;;;;;;12.23;10.98;;;;;;;20.03;74.22;96770.05;1649621;85;20922;-79
2021/06/27 07:10:55;;;;;;;13.05;10.53;;;;;;;20.09;74.81;96773.06;1650311;85;20990;-79
2021/06/27 07:13:20;;;;;;;10.95;9.83;;;;;;;20.19;75.06;96773.28;1649632;85;21263;-80
2021/06/27 07:15:47;;;;;;;12.23;11.03;;;;;;;20.31;75.51;96773.23;1635193;85;20960;-79
2021/06/27 07:18:13;;;;;;;11.63;10.43;;;;;;;20.41;75.03;96769.52;1659193;85;20950;-79
2021/06/27 07:20:39;;;;;;;12.65;11.15;;;;;;;20.53;75.00;96770.81;1657730;85;20904;-79
2021/06/27 07:23:04;;;;;;;12.15;10.95;;;;;;;20.63;73.50;96773.11;1663367;86;20995;-79
2021/06/27 07:25:30;;;;;;;11.68;10.48;;;;;;;20.54;72.51;96770.58;1662033;86;20980;-80
2021/06/27 07:27:56;;;;;;;10.43;9.43;;;;;;;20.57;73.18;96769.30;1623451;85;21022;-79
2021/06/27 07:30:22;;;;;;;9.48;7.92;;;;;;;20.64;73.29;96768.63;1648024;85;20999;-79
2021/06/27 07:32:48;;;;;;;10.32;9.23;;;;;;;20.77;74.68;96768.34;1666274;85;21336;-81
2021/06/27 07:35:13;;;;;;;10.85;9.85;;;;;;;20.83;73.15;96766.10;1669346;84;20906;-81
2021/06/27 07:37:39;;;;;;;10.20;9.20;;;;;;;20.85;72.21;96764.02;1669154;85;20914;-81
2021/06/27 07:40:08;;;;;;;9.73;8.73;;;;;;;20.88;72.03;96756.94;1669033;85;20899;-81
2021/06/27 07:42:35;;;;;;;10.13;8.18;;;;;;;20.93;72.05;96760.98;1630083;86;21049;-81
2021/06/27 07:45:01;;;;;;;13.18;11.80;;;;;;;21.00;71.69;96756.09;1655731;84;21292;-81
2021/06/27 07:47:27;;;;;;;12.03;10.55;;;;;;;21.02;70.49;96757.45;1637430;86;21036;-81
2021/06/27 07:49:52;;;;;;;12.68;11.40;;;;;;;20.97;70.67;96756.02;1638890;86;20965;-81
2021/06/27 07:52:18;;;;;;;13.30;10.03;;;;;;;21.00;70.54;96752.92;1629528;86;21322;-82
2021/06/27 07:54:44;;;;;;;12.90;11.68;;;;;;;21.10;71.33;96752.27;1662353;84;21000;-81
2021/06/27 07:57:09;;;;;;;13.68;12.43;;;;;;;21.18;70.99;96750.58;1677744;84;20924;-81
2021/06/27 07:59:35;;;;;;;12.43;11.20;;;;;;;21.27;70.31;96747.83;1664830;84;21220;-81
2021/06/27 08:02:01;;;;;;;11.55;9.88;;;;;;;21.37;69.29;96748.00;1668346;85;20976;-81
2021/06/27 08:04:27;;;;;;;10.98;9.40;;;;;;;21.36;69.06;96742.44;1670333;85;20894;-81
2021/06/27 08:06:52;;;;;;;11.30;10.25;;;;;;;21.40;69.68;96742.22;1635865;86;21009;-81
2021/06/27 08:09:19;;;;;;;9.38;8.48;;;;;;;21.35;67.10;96745.32;1671994;84;21252;-81
2021/06/27 08:11:46;;;;;;;11.22;10.10;;;;;;;21.31;68.50;96741.53;1640110;86;20951;-81
2021/06/27 08:14:12;;;;;;;13.30;10.00;;;;;;;21.36;67.96;96745.59;1640371;85;20946;-81
2021/06/27 08:16:38;;;;;;;10.58;9.58;;;;;;;21.49;68.09;96751.36;1678006;85;20947;-81
2021/06/27 08:19:06;;;;;;;9.30;8.40;;;;;;;21.62;68.76;96748.88;1659108;84;21279;-81
2021/06/27 08:21:32;;;;;;;7.62;6.78;;;;;;;21.73;69.55;96751.16;1696389;83;20942;-81
2021/06/27 08:23:57;;;;;;;11.08;9.48;;;;;;;21.81;70.03;96752.88;1678610;85;21277;-81
2021/06/27 08:26:23;;;;;;;10.80;9.80;;;;;;;21.81;69.16;96755.53;1667818;84;20993;-81
2021/06/27 08:28:51;;;;;;;10.53;9.38;;;;;;;21.90;68.65;96749.80;1651079;84;20942;-81
2021/06/27 08:31:17;;;;;;;9.38;7.65;;;;;;;21.88;66.89;96756.66;1674564;84;21057;-81
2021/06/27 08:33:43;;;;;;;11.50;9.48;;;;;;;21.86;68.01;96752.94;1677885;84;20982;-81
2021/06/27 08:36:08;;;;;;;9.28;8.40;;;;;;;21.86;67.94;96755.59;1678282;84;20967;-81
2021/06/27 08:38:34;;;;;;;9.73;8.80;;;;;;;21.87;66.57;96751.09;1654817;85;21009;-81
2021/06/27 08:41:00;;;;;;;8.65;7.72;;;;;;;21.86;67.04;96751.63;1677562;84;20971;-81
2021/06/27 08:43:29;;;;;;;10.08;8.43;;;;;;;21.93;68.48;96748.79;1690378;83;20981;-81
2021/06/27 08:45:55;;;;;;;9.08;8.08;;;;;;;21.90;67.22;96733.93;1686889;84;20976;-81
2021/06/27 08:48:22;;;;;;;9.08;8.18;;;;;;;21.93;68.05;96746.66;1696216;83;21285;-81
2021/06/27 08:50:51;;;;;;;7.55;6.95;;;;;;;21.81;67.92;96750.76;1677519;84;20972;-81
2021/06/27 08:53:18;;;;;;;7.95;7.25;;;;;;;21.74;69.27;96748.27;1671823;84;21025;-81
2021/06/27 08:55:44;;;;;;;9.95;9.10;;;;;;;21.73;69.05;96751.16;1675125;85;21048;-81
2021/06/27 08:58:09;;;;;;;7.75;7.00;;;;;;;21.71;68.03;96746.12;1686021;84;20957;-81
2021/06/27 09:00:37;;;;;;;9.93;9.03;;;;;;;21.78;68.88;96746.73;1669705;84;20951;-81
2021/06/27 09:03:07;;;;;;;10.48;9.35;;;;;;;21.99;68.40;96743.86;1669306;84;20954;-81
2021/06/27 09:05:33;;;;;;;10.80;9.90;;;;;;;22.20;68.85;96746.27;1687255;84;21253;-81
2021/06/27 09:08:16;;;;;;;12.65;11.48;;;;;;;22.38;68.35;96753.09;1696217;83;21247;-81
2021/06/27 09:10:41;;;;;;;10.70;9.80;;;;;;;22.52;67.85;96751.66;1678064;84;21336;-82
2021/06/27 09:13:08;;;;;;;11.83;10.68;;;;;;;22.68;68.07;96758.72;1696049;83;21028;-81
2021/06/27 09:15:50;;;;;;;11.85;10.68;;;;;;;22.73;67.58;96757.97;1670922;84;21344;-81
2021/06/27 09:18:19;;;;;;;;;;;;;;;22.87;67.21;96761.05;1651712;86;20980;-82
2021/06/27 09:20:52;;;;;;;12.18;11.03;;;;;;;22.86;66.80;96756.80;1665817;85;20102;-81
2021/06/27 09:23:20;;;;;;;12.58;11.22;;;;;;;22.97;67.55;96755.33;1672368;85;21273;-81
2021/06/27 09:25:46;;;;;;;12.18;11.05;;;;;;;22.84;66.15;96757.58;1644263;86;20962;-82
2021/06/27 09:28:16;;;;;;;13.08;11.78;;;;;;;22.79;66.65;96760.96;1640877;86;21036;-81
2021/06/27 09:30:52;;;;;;;11.68;10.58;;;;;;;22.90;65.56;96753.92;1644307;86;21028;-81
2021/06/27 09:33:27;;;;;;;14.00;12.65;;;;;;;23.06;67.21;96752.48;1646991;86;20956;-81
2021/06/27 09:35:58;;;;;;;12.10;11.10;;;;;;;23.06;64.84;96746.39;1674335;85;21266;-81
2021/06/27 09:38:48;;;;;;;10.82;9.83;;;;;;;23.10;65.90;96743.50;1659119;86;20924;-82
2021/06/27 09:41:29;;;;;;;10.10;9.18;;;;;;;23.26;66.32;96744.42;1632714;86;20989;-81
2021/06/27 09:43:54;;;;;;;14.00;12.75;;;;;;;23.38;66.01;96738.95;1665540;86;21000;-82
2021/06/27 09:46:39;;;;;;;10.82;9.78;;;;;;;23.48;65.08;96741.69;1663680;85;21285;-81
2021/06/27 09:49:15;;;;;;;10.30;9.30;;;;;;;23.54;62.46;96745.96;1666179;86;20989;-81
2021/06/27 09:51:51;;;;;;;9.60;8.70;;;;;;;23.37;64.23;96750.09;1650605;86;21025;-82
2021/06/27 09:54:20;;;;;;;10.25;9.28;;;;;;;23.40;65.47;96754.08;1660280;86;20952;-81
2021/06/27 09:56:46;;;;;;;11.50;10.40;;;;;;;23.52;64.85;96748.88;1674176;85;20984;-82
2021/06/27 09:59:19;;;;;;;10.32;9.18;;;;;;;23.67;63.35;96747.41;1645624;86;20947;-81
2021/06/27 10:01:45;;;;;;;9.63;8.75;;;;;;;23.77;63.66;96738.20;1672779;85;20983;-81
2021/06/27 10:04:17;;;;;;;9.08;8.28;;;;;;;23.67;61.48;96741.58;1643627;86;21424;-81
2021/06/27 10:06:52;;;;;;;9.83;8.08;;;;;;;23.70;61.70;96740.27;1671857;85;20948;-81
2021/06/27 10:09:24;;;;;;;9.70;8.78;;;;;;;23.80;63.27;96739.80;1680258;85;20929;-81
2021/06/27 10:12:01;;;;;;;7.95;7.22;;;;;;;23.91;61.78;96738.78;1654368;86;20952;-81
2021/06/27 10:14:35;;;;;;;8.65;7.95;;;;;;;24.05;62.65;96737.00;1661533;86;21007;-82
2021/06/27 10:17:03;;;;;;;8.15;7.47;;;;;;;24.00;61.21;96730.34;1677869;84;20973;-82
2021/06/27 10:19:29;;;;;;;10.30;7.72;;;;;;;24.03;61.93;96728.50;1686266;84;20937;-82
2021/06/27 10:21:56;;;;;;;7.78;7.08;;;;;;;24.12;61.43;96732.27;1656832;87;20898;-81
2021/06/27 10:24:22;;;;;;;8.55;7.03;;;;;;;24.16;61.06;96728.03;1686943;84;21305;-81
2021/06/27 10:26:48;;;;;;;8.00;7.20;;;;;;;24.14;61.39;96715.55;1686304;84;20972;-81
2021/06/27 10:29:14;;;;;;;8.30;7.60;;;;;;;24.17;63.39;96721.13;1686940;84;20977;-81
2021/06/27 10:31:40;;;;;;;7.33;5.80;;;;;;;24.23;62.88;96713.97;1670556;85;21028;-81
2021/06/27 10:34:06;;;;;;;7.12;6.53;;;;;;;24.26;59.89;96716.13;1686285;84;21199;-81
2021/06/27 10:36:38;;;;;;;6.97;6.28;;;;;;;24.21;61.15;96718.22;1677116;84;20967;-81
2021/06/27 10:39:08;;;;;;;6.80;6.10;;;;;;;24.21;61.65;96718.75;1674308;84;21273;-82
2021/06/27 10:41:56;;;;;;;6.80;6.20;;;;;;;24.25;60.67;96715.86;1650225;85;20953;-82
2021/06/27 10:44:24;;;;;;;6.75;6.25;;;;;;;24.34;61.73;96718.30;1673890;83;20961;-81
2021/06/27 10:46:53;;;;;;;5.47;5.08;;;;;;;24.44;60.50;96715.69;1662645;86;20989;-82
2021/06/27 10:49:33;;;;;;;8.20;6.50;;;;;;;24.47;57.74;96722.33;1680410;83;20970;-82
2021/06/27 10:52:10;;;;;;;7.25;6.58;;;;;;;24.43;58.66;96722.06;1677247;83;20995;-82
2021/06/27 10:54:40;;;;;;;6.87;5.83;;;;;;;24.40;58.45;96719.10;1696398;83;20944;-81
2021/06/27 10:57:10;;;;;;;6.40;5.83;;;;;;;24.21;60.04;96713.44;1671364;84;20927;-81
2021/06/27 10:59:49;;;;;;;6.60;6.00;;;;;;;23.91;60.70;96716.75;1697779;83;20912;-81
2021/06/27 11:02:22;;;;;;;7.60;6.87;;;;;;;23.78;61.04;96715.91;1697825;83;20972;-82
2021/06/27 11:04:52;;;;;;;6.30;5.60;;;;;;;23.83;59.43;96711.42;1686337;84;20997;-81
2021/06/27 11:07:42;;;;;;;6.12;5.53;;;;;;;23.91;57.77;96707.47;1639607;85;21433;-82
2021/06/27 11:10:27;;;;;;;8.10;5.95;;;;;;;24.00;57.58;96697.17;1678043;84;21023;-81
2021/06/27 11:13:05;;;;;;;5.95;5.45;;;;;;;24.05;57.91;96705.14;1686580;84;20965;-81
2021/06/27 11:15:42;;;;;;;6.55;5.90;;;;;;;23.98;57.12;96695.30;1680608;84;20982;-82
2021/06/27 11:18:10;;;;;;;7.17;5.35;;;;;;;24.07;56.92;96694.53;1623600;86;21016;-81
2021/06/27 11:20:56;;;;;;;5.40;4.90;;;;;;;24.23;58.09;96695.38;1673393;84;21278;-82
2021/06/27 11:23:53;;;;;;;4.70;4.30;;;;;;;24.36;59.32;96693.60;1626206;86;21004;-81
2021/06/27 11:26:50;;;;;;;4.50;4.12;;;;;;;24.37;54.80;96687.77;1640329;85;20992;-82
2021/06/27 11:29:27;;;;;;;4.45;4.05;;;;;;;24.33;56.18;96682.72;1661417;85;20931;-82
2021/06/27 11:31:56;;;;;;;4.12;3.70;;;;;;;24.41;56.54;96681.69;1665066;85;21051;-81
2021/06/27 11:34:28;;;;;;;3.52;3.17;;;;;;;24.51;54.63;96683.55;1658814;85;20991;-81